Flight Track Log - Related Links

Times and Time Zones

All times are in EDT time to prevent confusion due to time zone crossing. See the SWA1542 flight status page for this flight to view local times or setup timezone preferences in your user account.

Time Position Orientation Groundspeed Altitude Reporting Facility
EDT Latitude Longitude Course Direction KTS MPH feet Rate Location/Type
Mon 12:59:06 AM 39.5764 -119.7197 138° Southeast 217 250 9,300  Level Oakland Center
Mon 12:59:25 AM 39.5667 -119.7000 123° Southeast 241 277 10,600 3,114 Climbing Northern Cal TRACON
Mon 01:00:25 AM 39.5000 -119.6167 136° Southeast 334 384 13,400 3,087 Climbing Northern Cal TRACON
Mon 01:01:08 AM 39.4611 -119.5675 136° Southeast 331 381 15,900 3,204 Climbing Oakland Center
Mon 01:02:08 AM 39.3897 -119.4758 135° Southeast 355 409 18,900 3,074 Climbing Oakland Center
Mon 01:03:00 AM 39.2297 -119.2625 138° Southeast  Level FlightAware Approximate
Mon 01:03:09 AM 39.3083 -119.3839 139° Southeast 385 443 22,100  Level Oakland Center
Mon 01:04:00 AM 39.1521 -119.1737 138° Southeast  Level FlightAware Approximate
Mon 01:04:10 AM 39.2231 -119.2906 140° Southeast 402 463 25,000  Level Oakland Center
Mon 01:05:11 AM 39.1333 -119.1925 140° Southeast 422 486 27,600 1,967 Climbing Oakland Center
Mon 01:06:12 AM 39.0417 -119.0917 139° Southeast 436 502 29,000 885 Climbing Oakland Center
Mon 01:07:13 AM 38.9317 -118.9711 140° Southeast 437 503 29,400 1,587 Climbing Oakland Center
Mon 01:08:13 AM 38.8403 -118.8733 140° Southeast 432 497 32,200 1,785 Climbing Oakland Center
Mon 01:09:14 AM 38.7469 -118.7708 139° Southeast 443 510 33,000 393 Climbing Oakland Center
Mon 01:10:15 AM 38.6522 -118.6708 140° Southeast 445 512 33,000  Level Oakland Center
Mon 01:11:16 AM 38.5586 -118.5719 140° Southeast 440 506 33,000  Level Oakland Center
Mon 01:12:17 AM 38.4647 -118.4733 141° Southeast 438 504 33,000  Level Oakland Center
Mon 01:13:18 AM 38.3711 -118.3731 140° Southeast 441 507 33,000  Level Oakland Center
Mon 01:14:18 AM 38.2769 -118.2733 140° Southeast 440 506 33,000  Level Oakland Center
Mon 01:15:19 AM 38.1836 -118.1753 140° Southeast 439 505 33,000  Level Oakland Center
Mon 01:16:20 AM 38.0897 -118.0728 139° Southeast 446 513 33,000  Level Oakland Center
Mon 01:17:21 AM 37.9981 -117.9767 140° Southeast 435 501 33,000  Level Oakland Center
Mon 01:18:22 AM 37.8856 -117.8589 140° Southeast 441 507 33,000  Level Oakland Center
Mon 01:19:22 AM 37.7922 -117.7619 141° Southeast 439 505 33,000  Level Oakland Center
Mon 01:20:23 AM 37.6986 -117.6653 141° Southeast 440 506 33,000  Level Oakland Center
Mon 01:21:24 AM 37.6056 -117.5669 140° Southeast 440 506 33,000  Level Oakland Center
Mon 01:22:25 AM 37.5128 -117.4714 141° Southeast 435 501 33,000  Level Oakland Center
Mon 01:23:26 AM 37.4192 -117.3767 141° Southeast 434 499 33,000  Level Oakland Center
Mon 01:24:27 AM 37.3250 -117.2819 141° Southeast 437 503 33,000  Level Oakland Center
Mon 01:25:27 AM 37.2325 -117.1844 140° Southeast 437 503 33,000  Level Oakland Center
Mon 01:26:28 AM 37.1381 -117.0883 141° Southeast 435 501 33,000  Level Oakland Center
Mon 01:27:29 AM 37.0444 -116.9933 141° Southeast 434 499 33,000  Level Oakland Center
Mon 01:28:29 AM 36.9500 -116.8981 141° Southeast 434 499 33,000  Level Oakland Center
Mon 01:29:30 AM 36.8547 -116.8017 141° Southeast 438 504 33,000  Level Oakland Center
Mon 01:30:31 AM 36.7650 -116.7011 138° Southeast 436 502 33,000 -1,082 Level Oakland Center
Mon 01:31:32 AM 36.6717 -116.5628 130° Southeast 434 499 30,800 -2,508 Descending Oakland Center
Mon 01:32:33 AM 36.5931 -116.4508 131° Southeast 432 497 27,900 -2,585 Descending Oakland Center
Mon 01:33:42 AM 36.5086 -116.3319 131° Southeast 426 490 25,200 -2,354 Descending Los Angeles Center
Mon 01:34:43 AM 36.4353 -116.2275 131° Southeast 410 472 22,800 -2,410 Descending Los Angeles Center
Mon 01:35:44 AM 36.3564 -116.1150 131° Southeast 394 453 20,300 -2,459 Descending Los Angeles Center
Mon 01:36:45 AM 36.2842 -116.0175 133° Southeast 387 445 17,800 -2,016 Descending Los Angeles Center
Mon 01:37:46 AM 36.2158 -115.9167 130° Southeast 362 417 16,200 -1,180 Descending Los Angeles Center
Mon 01:38:47 AM 36.1992 -115.8039 100° East 337 388 15,400 -787 Descending Los Angeles Center
Mon 01:39:48 AM 36.1869 -115.6900 98° East 335 386 14,600 -639 Descending Los Angeles Center
Mon 01:40:49 AM 36.1758 -115.5808 97° East 321 369 14,100 -885 Descending Los Angeles Center
Mon 01:41:50 AM 36.1806 -115.4858 86° East 289 333 12,800 -1,918 Descending Los Angeles Center
Mon 01:42:51 AM 36.1819 -115.3997 89° East 262 302 10,200 -2,341 Descending Los Angeles Center
Mon 01:43:53 AM 36.1906 -115.3197 82° East 247 284 8,000 -1,951 Descending Los Angeles Center
Mon 01:44:54 AM 36.2008 -115.2444 80° East 235 270 6,200 -1,623 Descending Los Angeles Center
Mon 01:45:55 AM 36.1953 -115.1756 96° East 218 251 4,700 -1,279 Descending Los Angeles Center
Mon 01:46:56 AM 36.1561 -115.1203 131° Southeast 190 219 3,600 -984 Descending Los Angeles Center
Mon 01:47:57 AM 36.1219 -115.1392 204° Southwest 153 176 2,700 -738 Descending Los Angeles Center
Mon 01:48:58 AM 36.0886 -115.1589 206° Southwest 140 161 2,100 -590 Descending Los Angeles Center
Mon 01:50:00 AM 36.0801 -115.1523 90° East  Level Estimated

Login

Don't have an account? Register now (free) for customized features, flight alerts, and more!